McLean, Texas
Current Conditions -  °F | °C
As of 12:55 AM on Saturday 20 Dec 2014 (Local Time) from KPPA Reporting Station
Overcast Overcast  
Wind Chill: 29°   Ceiling: 600
Heat Index: 37°   Visibility: 10mi
Dew Point: 35°   Wind: 13mph
Humidity: 93%   Direction: 210°SSW
Pressure: 30.13"   Gusts: 17mph
Location:  35.23°N, 100.6°W
Report Text: KPPA 200655Z AUTO 21011G15KT 10SM OVC006 03/02 A3013 RMK AO2 T00280017 PNO
Loading
Personal Weather Stations






























Interactive Weather Map New forecast layout! Learn more

10-Day Weather Forecast

Advertisements
Track Severe Weather on mobile